createdAt,value
2022-11-13T00:03:39.466Z,87.10
2022-11-13T00:08:59.865Z,87.31
2022-11-13T00:14:22.839Z,87.46
2022-11-13T00:19:43.358Z,87.67
2022-11-13T00:25:04.188Z,87.67
2022-11-13T00:30:24.593Z,87.67
2022-11-13T00:35:45.407Z,87.65
2022-11-13T00:41:06.191Z,87.51
2022-11-13T00:46:26.822Z,87.49
2022-11-13T00:51:49.110Z,87.31
2022-11-13T00:57:09.688Z,87.36
2022-11-13T01:02:30.055Z,87.24
2022-11-13T01:07:50.543Z,87.15
2022-11-13T01:13:11.364Z,87.09
2022-11-13T01:18:31.881Z,87.10
2022-11-13T01:23:52.495Z,86.95
2022-11-13T01:29:13.624Z,86.81
2022-11-13T01:34:34.375Z,86.73
2022-11-13T01:39:54.754Z,86.68
2022-11-13T01:45:53.263Z,86.62
2022-11-13T01:51:24.431Z,86.63
2022-11-13T01:56:45.177Z,86.56
2022-11-13T02:02:05.720Z,86.51
2022-11-13T02:07:26.448Z,86.71
2022-11-13T02:12:51.546Z,86.80
2022-11-13T02:18:13.868Z,86.88
2022-11-13T02:24:12.631Z,87.03
2022-11-13T02:29:33.005Z,87.10
2022-11-13T02:35:07.524Z,87.29
2022-11-13T02:40:28.350Z,87.32
2022-11-13T02:45:49.159Z,87.30
2022-11-13T02:51:09.988Z,87.19
2022-11-13T02:56:30.908Z,87.15
2022-11-13T03:01:51.561Z,87.15
2022-11-13T03:07:13.473Z,87.09
2022-11-13T03:12:34.398Z,86.91
2022-11-13T03:17:54.818Z,86.91
2022-11-13T03:23:15.324Z,86.79
2022-11-13T03:28:36.175Z,86.71
2022-11-13T03:33:56.676Z,86.68
2022-11-13T03:39:17.280Z,86.66
2022-11-13T03:44:38.057Z,86.73
2022-11-13T03:49:58.509Z,86.76
2022-11-13T03:55:19.233Z,86.85
2022-11-13T04:00:41.483Z,86.85
2022-11-13T04:06:02.201Z,87.06
2022-11-13T04:11:22.929Z,87.19
2022-11-13T04:16:43.336Z,87.25
2022-11-13T04:22:03.844Z,87.27
2022-11-13T04:27:24.076Z,87.31
2022-11-13T04:32:44.708Z,87.37
2022-11-13T04:38:05.182Z,87.47
2022-11-13T04:43:25.522Z,87.49
2022-11-13T04:48:46.108Z,87.43
2022-11-13T04:54:06.626Z,87.40
2022-11-13T04:59:27.543Z,87.44
2022-11-13T05:04:48.268Z,87.48
2022-11-13T05:10:09.801Z,87.42
2022-11-13T05:15:30.421Z,87.41
2022-11-13T05:20:51.138Z,87.45
2022-11-13T05:26:13.516Z,87.35
2022-11-13T05:31:34.216Z,87.22
2022-11-13T05:36:54.936Z,87.09
2022-11-13T05:42:15.676Z,86.94
2022-11-13T05:47:36.371Z,86.83
2022-11-13T05:52:56.784Z,86.84
2022-11-13T05:58:17.300Z,86.84
2022-11-13T06:03:39.012Z,86.90
2022-11-13T06:09:02.426Z,87.02
2022-11-13T06:14:23.351Z,87.16
2022-11-13T06:19:45.015Z,87.24
2022-11-13T06:25:05.954Z,87.37
2022-11-13T06:30:26.525Z,87.28
2022-11-13T06:35:47.349Z,87.13
2022-11-13T06:41:09.918Z,86.77
2022-11-13T06:46:31.563Z,86.57
2022-11-13T06:52:01.908Z,86.52
2022-11-13T06:57:22.821Z,86.51
2022-11-13T07:02:43.311Z,86.51
2022-11-13T07:08:03.853Z,86.60
2022-11-13T07:13:26.206Z,86.56
2022-11-13T07:18:51.909Z,86.50
2022-11-13T07:24:16.755Z,86.44
2022-11-13T07:29:39.325Z,86.37
2022-11-13T07:34:59.836Z,86.26
2022-11-13T07:40:20.247Z,86.08
2022-11-13T07:45:40.559Z,86.05
2022-11-13T07:51:02.619Z,85.89
2022-11-13T07:56:25.504Z,85.41
2022-11-13T08:01:46.093Z,85.32
2022-11-13T08:07:06.716Z,85.15
2022-11-13T08:12:27.228Z,85.04
2022-11-13T08:17:54.641Z,84.96
2022-11-13T08:23:15.217Z,84.85
2022-11-13T08:28:36.859Z,84.74
2022-11-13T08:33:57.895Z,84.57
2022-11-13T08:39:18.558Z,84.43
2022-11-13T08:44:49.382Z,84.38
2022-11-13T08:50:09.974Z,84.08
2022-11-13T08:55:30.383Z,83.76
2022-11-13T09:00:51.087Z,83.49
2022-11-13T09:06:11.931Z,83.06
2022-11-13T09:11:32.649Z,82.89
2022-11-13T09:16:53.241Z,82.40
2022-11-13T09:22:13.571Z,82.10
2022-11-13T09:27:34.367Z,81.63
2022-11-13T09:32:57.397Z,80.77
2022-11-13T09:38:17.982Z,80.55
2022-11-13T09:44:26.718Z,80.06
2022-11-13T09:49:58.813Z,79.68
2022-11-13T09:55:24.019Z,79.14
2022-11-13T10:00:45.232Z,78.88
2022-11-13T10:06:43.791Z,78.27
2022-11-13T10:12:07.698Z,77.06
2022-11-13T10:18:12.626Z,77.39
2022-11-13T10:23:35.911Z,76.23
2022-11-13T10:29:17.727Z,75.57
2022-11-13T10:34:38.945Z,74.97
2022-11-13T10:39:59.254Z,74.48
2022-11-13T10:45:22.759Z,73.95
2022-11-13T10:50:43.251Z,73.46
2022-11-13T10:56:14.003Z,72.73
2022-11-13T11:01:34.943Z,71.94
2022-11-13T11:07:19.190Z,70.81
2022-11-13T11:12:36.541Z,70.39
2022-11-13T11:17:59.518Z,69.96
2022-11-13T11:23:25.798Z,69.29
2022-11-13T11:28:59.488Z,68.93
2022-11-13T11:34:34.142Z,68.58
2022-11-13T11:39:54.669Z,68.23
2022-11-13T11:45:26.731Z,67.87
2022-11-13T11:51:05.770Z,67.55
2022-11-13T11:56:50.832Z,66.89
2022-11-13T12:02:32.779Z,66.36
2022-11-13T12:08:02.110Z,66.13
2022-11-13T12:13:30.247Z,65.88
2022-11-13T12:19:05.458Z,65.43
2022-11-13T12:24:31.708Z,65.41
2022-11-13T12:30:15.774Z,65.21
2022-11-13T12:35:38.258Z,65.28
2022-11-13T12:41:07.434Z,64.94
2022-11-13T12:46:37.174Z,64.80
2022-11-13T12:52:00.268Z,64.95
2022-11-13T12:57:30.089Z,64.86
2022-11-13T13:03:19.581Z,64.72
2022-11-13T13:08:58.323Z,64.50
2022-11-13T13:15:00.718Z,64.44
2022-11-13T13:20:20.954Z,64.44
2022-11-13T13:25:41.316Z,64.35
2022-11-13T13:31:16.810Z,64.36
2022-11-13T13:36:51.884Z,64.62
2022-11-13T13:42:30.705Z,64.72
2022-11-13T13:47:53.657Z,65.09
2022-11-13T13:53:36.227Z,65.51
2022-11-13T13:58:56.921Z,65.80
2022-11-13T14:04:20.959Z,66.38
2022-11-13T14:09:41.538Z,67.46
2022-11-13T14:15:05.502Z,68.63
2022-11-13T14:20:26.247Z,69.79
2022-11-13T14:25:48.404Z,70.87
2022-11-13T14:31:11.602Z,71.59
2022-11-13T14:36:34.140Z,72.31
2022-11-13T14:41:59.057Z,72.91
2022-11-13T14:47:31.891Z,73.61
2022-11-13T14:53:17.159Z,73.84
2022-11-13T14:58:47.200Z,74.24
2022-11-13T15:04:07.837Z,74.25
2022-11-13T15:09:30.766Z,74.41
2022-11-13T15:14:51.544Z,74.63
2022-11-13T15:20:18.143Z,75.03
2022-11-13T15:25:38.880Z,75.45
2022-11-13T15:30:59.599Z,75.26
2022-11-13T15:36:20.021Z,75.30
2022-11-13T15:41:41.180Z,75.74
2022-11-13T15:47:01.657Z,76.34
2022-11-13T15:52:24.319Z,76.75
2022-11-13T15:57:45.036Z,77.15
2022-11-13T16:03:11.727Z,77.44
2022-11-13T16:08:32.417Z,77.56
2022-11-13T16:13:53.338Z,77.88
2022-11-13T16:19:21.681Z,78.46
2022-11-13T16:24:44.197Z,78.96
2022-11-13T16:30:07.069Z,79.34
2022-11-13T16:35:27.785Z,79.70
2022-11-13T16:40:48.295Z,80.15
2022-11-13T16:46:20.902Z,80.19
2022-11-13T16:51:41.291Z,80.05
2022-11-13T16:57:01.625Z,79.91
2022-11-13T17:02:22.442Z,79.87
2022-11-13T17:07:42.954Z,79.79
2022-11-13T17:13:03.166Z,79.83
2022-11-13T17:18:23.576Z,80.02
2022-11-13T17:23:44.188Z,80.10
2022-11-13T17:29:05.880Z,80.22
2022-11-13T17:34:26.753Z,80.24
2022-11-13T17:39:46.964Z,80.42
2022-11-13T17:45:08.271Z,80.62
2022-11-13T17:50:29.214Z,80.70
2022-11-13T17:55:58.979Z,80.96
2022-11-13T18:01:22.100Z,81.08
2022-11-13T18:06:42.890Z,81.34
2022-11-13T18:12:03.361Z,81.47
2022-11-13T18:17:24.592Z,81.59
2022-11-13T18:22:45.106Z,81.81
2022-11-13T18:28:05.512Z,81.89
2022-11-13T18:33:26.616Z,82.15
2022-11-13T18:38:47.568Z,82.13
2022-11-13T18:44:08.498Z,82.30
2022-11-13T18:49:29.519Z,82.43
2022-11-13T18:54:50.412Z,82.52
2022-11-13T19:00:11.218Z,82.64
2022-11-13T19:05:31.575Z,82.68
2022-11-13T19:10:52.192Z,82.84
2022-11-13T19:16:19.599Z,82.85
2022-11-13T19:21:40.541Z,82.88
2022-11-13T19:27:01.113Z,82.92
2022-11-13T19:32:21.415Z,82.87
2022-11-13T19:37:42.038Z,82.88
2022-11-13T19:43:02.726Z,82.91
2022-11-13T19:48:23.369Z,82.94
2022-11-13T19:53:59.008Z,83.08
2022-11-13T19:59:19.449Z,83.08
2022-11-13T20:04:40.182Z,83.07
2022-11-13T20:10:00.888Z,83.07
2022-11-13T20:15:21.196Z,83.20
2022-11-13T20:20:44.423Z,83.12
2022-11-13T20:26:08.067Z,83.07
2022-11-13T20:31:28.741Z,83.04
2022-11-13T20:36:49.399Z,83.12
2022-11-13T20:42:09.812Z,83.10
2022-11-13T20:47:30.834Z,83.14
2022-11-13T20:52:51.558Z,83.04
2022-11-13T20:58:12.479Z,82.93
2022-11-13T21:03:38.601Z,82.98
2022-11-13T21:09:02.007Z,83.09
2022-11-13T21:14:22.620Z,83.19
2022-11-13T21:19:43.427Z,83.19
2022-11-13T21:25:04.882Z,83.17
2022-11-13T21:30:25.906Z,83.25
2022-11-13T21:35:46.723Z,83.26
2022-11-13T21:41:21.405Z,83.22
2022-11-13T21:46:42.300Z,83.18
2022-11-13T21:52:02.947Z,83.31
2022-11-13T21:57:24.413Z,83.39
2022-11-13T22:02:44.968Z,83.48
2022-11-13T22:08:05.684Z,83.63
2022-11-13T22:13:30.797Z,83.85
2022-11-13T22:18:55.929Z,83.77
2022-11-13T22:24:17.055Z,83.82
2022-11-13T22:29:37.781Z,83.83
2022-11-13T22:34:58.347Z,84.01
2022-11-13T22:40:19.010Z,83.96
2022-11-13T22:45:39.422Z,83.94
2022-11-13T22:51:11.230Z,84.02
2022-11-13T22:56:33.669Z,84.07
2022-11-13T23:01:54.073Z,84.11
2022-11-13T23:07:14.838Z,84.20
2022-11-13T23:12:35.201Z,84.12
2022-11-13T23:17:55.619Z,84.22
2022-11-13T23:23:17.458Z,84.15
2022-11-13T23:28:38.791Z,84.02
2022-11-13T23:33:59.183Z,84.10
2022-11-13T23:39:19.722Z,84.05
2022-11-13T23:44:40.127Z,83.96
2022-11-13T23:50:01.201Z,83.90
2022-11-13T23:55:22.798Z,83.76
